»·PEaware :: N434EP KGJT-KEGE

N434EP :: KGJT-KEGE

FLIGHT INFORMATION

Flight Status: Arrived
Operator: Privately registered:
United States
More flights under this callsign
Pilot: Drew H. (3199)
Aircraft: CESSNA 172 SKYHAWK
(C172)
More flights by this aircraft type
Origin: KGJT Walker
United States
Destination: KEGE Eagle Co Regl
United States
More flights between these airports :: More routes between these airports
Route: +RIL
File this flight plan on PilotEdge
Remarks: Rt will follow I-70
Altitude:
(Current/Filed)
9,500ft
Speed:
(Current/Filed)
110kts
Departed: 21-Nov-17 08:02 PM
Arrived: 21-Nov-17 08:53 PM
Distance/Time
Traveled:
81nm/0:51
Distance/Time
To Go:
Arrived

Flight Plot

Page will automatically refresh every two minutes.

Flight plan parsing failed; only flown route is shown


Map Options




Map Legend


Flown Route
Filed Route
Departure Airport
Arrival Airport
Navaid (VOR, NDB)
Fix

Horizontal Profiles

Position Reports

Time Latitude Longitude Heading Altitude Ground
Speed
21-Nov-17 19:46 39.120413 -108.522421 303 4861ft 0kts
21-Nov-17 19:47 39.120413 -108.522421 303 4861ft 0kts
21-Nov-17 19:48 39.120413 -108.522421 303 4861ft 0kts
21-Nov-17 19:49 39.120413 -108.522421 303 4861ft 0kts
21-Nov-17 19:50 39.120413 -108.522421 303 4861ft 0kts
21-Nov-17 19:51 39.120413 -108.522421 303 4861ft 0kts
21-Nov-17 19:52 39.120413 -108.522421 303 4861ft 0kts
21-Nov-17 19:53 39.120413 -108.522421 303 4861ft 0kts
21-Nov-17 19:54 39.120413 -108.522421 303 4861ft 0kts
21-Nov-17 19:55 39.120413 -108.522421 303 4861ft 0kts
21-Nov-17 19:56 39.120413 -108.522421 303 4861ft 0kts
21-Nov-17 19:57 39.120413 -108.522421 303 4861ft 0kts
21-Nov-17 19:58 39.120413 -108.522421 303 4861ft 0kts
21-Nov-17 19:59 39.120414 -108.522422 303 4861ft 0kts
21-Nov-17 20:00 39.120413 -108.522421 303 4861ft 0kts
21-Nov-17 20:01 39.120424 -108.522441 304 4861ft 0kts
21-Nov-17 20:02 39.120424 -108.522441 304 4861ft 0kts
21-Nov-17 20:03 39.120424 -108.522441 304 4861ft 0kts
21-Nov-17 20:04 39.120700 -108.520779 124 4861ft 18kts
21-Nov-17 20:05 39.117965 -108.515447 63 4861ft 0kts
21-Nov-17 20:06 39.117966 -108.515446 62 4861ft 0kts
21-Nov-17 20:07 39.120183 -108.517338 306 4861ft 57kts
21-Nov-17 20:08 39.130482 -108.537993 304 5625ft 69kts
21-Nov-17 20:09 39.146113 -108.532648 32 6422ft 76kts
21-Nov-17 20:10 39.161986 -108.514968 33 7069ft 76kts
21-Nov-17 20:11 39.175096 -108.492918 53 7664ft 80kts
21-Nov-17 20:12 39.185990 -108.467162 48 8220ft 81kts
21-Nov-17 20:13 39.197858 -108.442037 48 8727ft 83kts
21-Nov-17 20:14 39.208914 -108.415428 49 9225ft 84kts
21-Nov-17 20:15 39.221321 -108.387854 49 9516ft 103kts
21-Nov-17 20:16 39.238601 -108.354211 48 9473ft 118kts
21-Nov-17 20:17 39.255340 -108.321001 49 9471ft 116kts
21-Nov-17 20:18 39.274274 -108.287108 45 9426ft 116kts
21-Nov-17 20:19 39.294846 -108.254959 42 9371ft 115kts
21-Nov-17 20:20 39.314962 -108.223275 44 9447ft 111kts
21-Nov-17 20:21 39.334658 -108.191784 42 9506ft 113kts
21-Nov-17 20:22 39.354137 -108.160300 46 9525ft 112kts
21-Nov-17 20:23 39.373644 -108.129407 43 9513ft 110kts
21-Nov-17 20:24 39.394006 -108.099908 43 9497ft 109kts
21-Nov-17 20:25 39.414391 -108.071149 40 9493ft 108kts
21-Nov-17 20:26 39.432958 -108.036956 53 9444ft 125kts
21-Nov-17 20:27 39.451626 -107.999250 53 9563ft 126kts
21-Nov-17 20:28 39.471732 -107.963414 42 9560ft 127kts
21-Nov-17 20:29 39.496085 -107.930135 38 9556ft 127kts
21-Nov-17 20:30 39.522870 -107.900927 32 9534ft 125kts
21-Nov-17 20:31 39.534704 -107.858353 81 9501ft 132kts
21-Nov-17 20:32 39.539710 -107.811116 79 9475ft 131kts
21-Nov-17 20:33 39.544754 -107.765155 81 9518ft 124kts
21-Nov-17 20:34 39.548809 -107.720030 81 9532ft 126kts
21-Nov-17 20:35 39.551933 -107.674675 85 9561ft 126kts
21-Nov-17 20:36 39.553789 -107.629054 84 9581ft 127kts
21-Nov-17 20:37 39.556577 -107.583371 83 9568ft 128kts
21-Nov-17 20:38 39.559843 -107.536563 82 9488ft 131kts
21-Nov-17 20:39 39.563757 -107.490157 81 9454ft 130kts
21-Nov-17 20:40 39.568077 -107.444148 81 9461ft 128kts
21-Nov-17 20:41 39.572704 -107.398419 78 9470ft 128kts
21-Nov-17 20:42 39.569225 -107.349985 102 8962ft 125kts
21-Nov-17 20:43 39.561270 -107.309642 82 8733ft 112kts
21-Nov-17 20:44 39.559789 -107.270503 89 8782ft 108kts
21-Nov-17 20:45 39.563690 -107.235650 53 9059ft 97kts
21-Nov-17 20:46 39.578436 -107.205959 51 9269ft 98kts
21-Nov-17 20:47 39.593093 -107.175358 48 9342ft 109kts
21-Nov-17 20:48 39.609407 -107.142159 52 9355ft 107kts
21-Nov-17 20:49 39.626294 -107.109866 45 9357ft 107kts
21-Nov-17 20:50 39.643497 -107.078007 53 9364ft 109kts
21-Nov-17 20:51 39.654289 -107.041270 91 9139ft 123kts
21-Nov-17 20:52 39.648527 -106.999115 95 8366ft 115kts
21-Nov-17 20:53 39.650266 -106.959821 79 7658ft 108kts
21-Nov-17 20:54 39.654598 -106.921995 85 7469ft 108kts
21-Nov-17 20:55 39.660540 -106.884366 86 7384ft 101kts
21-Nov-17 20:56 39.646953 -106.879849 257 6950ft 72kts
21-Nov-17 20:57 39.644603 -106.900709 251 6659ft 54kts
21-Nov-17 20:58 39.642728 -106.917062 252 6550ft 25kts
21-Nov-17 20:59 39.641629 -106.917250 90 6550ft 11kts
21-Nov-17 21:00 39.642630 -106.907688 77 6550ft 29kts
21-Nov-17 21:01 39.642226 -106.906635 258 6550ft 0kts
21-Nov-17 21:02 39.642226 -106.906635 258 6550ft 0kts
21-Nov-17 21:03 39.642226 -106.906635 258 6550ft 0kts
21-Nov-17 21:04 39.642226 -106.906635 258 6550ft 0kts
21-Nov-17 21:05 39.642226 -106.906635 258 6550ft 0kts
21-Nov-17 21:06 39.642226 -106.906635 258 6550ft 0kts
21-Nov-17 21:07 39.642226 -106.906635 258 6550ft 0kts
21-Nov-17 21:08 39.642226 -106.906635 258 6550ft 0kts
21-Nov-17 21:09 39.642226 -106.906635 258 6550ft 0kts
21-Nov-17 21:10 39.642226 -106.906635 258 6550ft 0kts
21-Nov-17 21:11 39.642226 -106.906635 258 6550ft 0kts
21-Nov-17 21:12 39.642226 -106.906635 258 6550ft 0kts

Navigation Log

Ident Type
Flight plan parsing failed, navigation log unavailable